createdAt,value
2018-11-06T00:02:27.715Z,68.40
2018-11-06T00:05:01.529Z,68.90
2018-11-06T00:07:29.885Z,69.50
2018-11-06T00:09:58.214Z,69.50
2018-11-06T00:12:26.602Z,69.50
2018-11-06T00:14:58.036Z,70.00
2018-11-06T00:17:26.382Z,70.30
2018-11-06T00:19:54.901Z,70.40
2018-11-06T00:22:23.270Z,70.60
2018-11-06T00:24:51.644Z,70.60
2018-11-06T00:27:19.958Z,70.80
2018-11-06T00:29:48.320Z,70.90
2018-11-06T00:32:16.746Z,71.60
2018-11-06T00:34:45.094Z,70.20
2018-11-06T00:37:13.457Z,69.50
2018-11-06T00:39:41.828Z,69.90
2018-11-06T00:42:10.261Z,70.20
2018-11-06T00:44:38.632Z,70.60
2018-11-06T00:47:07.064Z,70.80
2018-11-06T00:49:35.415Z,70.70
2018-11-06T00:52:03.778Z,70.80
2018-11-06T00:54:32.188Z,70.90
2018-11-06T00:57:00.581Z,71.00
2018-11-06T00:59:28.953Z,71.00
2018-11-06T01:01:57.585Z,71.00
2018-11-06T01:04:25.933Z,71.20
2018-11-06T01:06:54.268Z,71.20
2018-11-06T01:09:22.652Z,71.20
2018-11-06T01:11:51.005Z,71.30
2018-11-06T01:14:19.349Z,71.30
2018-11-06T01:16:47.709Z,71.30
2018-11-06T01:19:16.073Z,71.50
2018-11-06T01:21:44.438Z,71.50
2018-11-06T01:24:12.793Z,71.40
2018-11-06T01:26:41.124Z,71.40
2018-11-06T01:29:09.869Z,71.30
2018-11-06T01:31:38.223Z,71.30
2018-11-06T01:34:06.581Z,71.50
2018-11-06T01:36:34.938Z,71.40
2018-11-06T01:39:04.171Z,71.50
2018-11-06T01:41:32.519Z,71.60
2018-11-06T01:44:00.859Z,71.60
2018-11-06T01:46:29.212Z,71.50
2018-11-06T01:48:57.563Z,71.10
2018-11-06T01:51:25.885Z,71.10
2018-11-06T01:53:54.237Z,71.50
2018-11-06T01:56:22.590Z,71.90
2018-11-06T01:58:51.087Z,72.30
2018-11-06T02:01:19.460Z,72.50
2018-11-06T02:03:47.767Z,72.50
2018-11-06T02:06:16.107Z,72.50
2018-11-06T02:08:44.467Z,72.40
2018-11-06T02:11:12.799Z,72.50
2018-11-06T02:13:41.134Z,72.30
2018-11-06T02:16:09.561Z,72.30
2018-11-06T02:18:37.883Z,72.20
2018-11-06T02:21:06.384Z,72.20
2018-11-06T02:23:34.681Z,72.30
2018-11-06T02:26:03.026Z,72.30
2018-11-06T02:28:31.346Z,72.40
2018-11-06T02:30:59.677Z,72.60
2018-11-06T02:33:28.003Z,72.60
2018-11-06T02:35:56.326Z,72.60
2018-11-06T02:38:24.790Z,72.70
2018-11-06T02:40:53.143Z,72.60
2018-11-06T02:43:21.449Z,72.70
2018-11-06T02:45:49.821Z,72.70
2018-11-06T02:48:18.171Z,72.80
2018-11-06T02:50:46.535Z,72.70
2018-11-06T02:53:14.885Z,72.70
2018-11-06T02:55:43.253Z,73.40
2018-11-06T02:58:11.552Z,72.80
2018-11-06T03:00:39.911Z,72.70
2018-11-06T03:03:08.264Z,72.60
2018-11-06T03:05:36.594Z,72.50
2018-11-06T03:08:04.953Z,73.10
2018-11-06T03:10:33.299Z,72.40
2018-11-06T03:13:01.627Z,72.30
2018-11-06T03:15:29.972Z,72.30
2018-11-06T03:17:58.297Z,72.20
2018-11-06T03:20:26.610Z,72.30
2018-11-06T03:22:54.955Z,72.20
2018-11-06T03:25:23.272Z,72.00
2018-11-06T03:27:51.626Z,71.80
2018-11-06T03:30:19.965Z,71.50
2018-11-06T03:32:48.322Z,71.60
2018-11-06T03:35:16.684Z,71.90
2018-11-06T03:37:45.040Z,72.00
2018-11-06T03:40:13.697Z,72.10
2018-11-06T03:42:42.793Z,72.00
2018-11-06T03:45:11.882Z,72.00
2018-11-06T03:47:40.254Z,71.90
2018-11-06T03:50:09.867Z,71.80
2018-11-06T03:52:38.240Z,71.60
2018-11-06T03:55:06.830Z,71.50
2018-11-06T03:57:35.247Z,71.30
2018-11-06T04:00:03.660Z,71.20
2018-11-06T04:02:31.988Z,71.20
2018-11-06T04:05:00.359Z,71.10
2018-11-06T04:07:28.818Z,71.20
2018-11-06T04:09:57.150Z,71.20
2018-11-06T04:12:25.494Z,71.20
2018-11-06T04:14:53.854Z,71.20
2018-11-06T04:17:22.229Z,71.10
2018-11-06T04:19:50.708Z,71.10
2018-11-06T04:22:19.040Z,71.00
2018-11-06T04:24:47.381Z,71.50
2018-11-06T04:27:15.728Z,70.80
2018-11-06T04:29:44.054Z,70.80
2018-11-06T04:32:12.399Z,70.40
2018-11-06T04:34:40.729Z,70.60
2018-11-06T04:37:09.120Z,70.80
2018-11-06T04:39:37.442Z,70.90
2018-11-06T04:42:06.062Z,71.10
2018-11-06T04:44:34.425Z,71.20
2018-11-06T04:47:02.797Z,71.30
2018-11-06T04:49:31.183Z,71.30
2018-11-06T04:51:59.518Z,71.20
2018-11-06T04:54:27.854Z,71.20
2018-11-06T04:56:56.210Z,71.30
2018-11-06T04:59:24.517Z,71.50
2018-11-06T05:01:52.907Z,71.70
2018-11-06T05:04:21.258Z,71.90
2018-11-06T05:06:49.658Z,71.90
2018-11-06T05:09:17.992Z,71.60
2018-11-06T05:11:46.318Z,71.50
2018-11-06T05:14:14.745Z,71.60
2018-11-06T05:16:43.006Z,71.70
2018-11-06T05:19:11.341Z,71.70
2018-11-06T05:21:39.706Z,71.70
2018-11-06T05:24:08.030Z,71.70
2018-11-06T05:26:36.384Z,71.70
2018-11-06T05:29:04.727Z,71.70
2018-11-06T05:31:33.092Z,71.60
2018-11-06T05:34:01.441Z,71.30
2018-11-06T05:36:29.788Z,71.30
2018-11-06T05:38:58.184Z,71.30
2018-11-06T05:41:26.465Z,71.10
2018-11-06T05:43:54.815Z,71.20
2018-11-06T05:46:23.156Z,71.20
2018-11-06T05:48:51.510Z,71.10
2018-11-06T05:51:19.868Z,71.10
2018-11-06T05:53:48.228Z,71.10
2018-11-06T05:56:16.566Z,71.00
2018-11-06T05:58:44.940Z,71.10
2018-11-06T06:01:13.293Z,71.00
2018-11-06T06:03:41.628Z,71.10
2018-11-06T06:06:10.047Z,71.10
2018-11-06T06:08:38.383Z,71.10
2018-11-06T06:11:06.895Z,71.10
2018-11-06T06:13:35.162Z,71.10
2018-11-06T06:16:03.598Z,71.10
2018-11-06T06:18:31.937Z,71.50
2018-11-06T06:21:00.327Z,72.00
2018-11-06T06:23:28.721Z,72.00
2018-11-06T06:25:57.060Z,71.30
2018-11-06T06:28:25.521Z,71.00
2018-11-06T06:30:53.794Z,70.70
2018-11-06T06:33:22.150Z,70.60
2018-11-06T06:35:50.556Z,70.60
2018-11-06T06:38:18.904Z,70.50
2018-11-06T06:40:47.252Z,70.50
2018-11-06T06:43:15.610Z,70.50
2018-11-06T06:45:43.975Z,70.40
2018-11-06T06:48:12.354Z,70.40
2018-11-06T06:50:40.697Z,70.50
2018-11-06T06:53:09.023Z,70.60
2018-11-06T06:55:37.399Z,70.70
2018-11-06T06:58:05.723Z,70.80
2018-11-06T07:00:34.099Z,70.60
2018-11-06T07:03:02.424Z,70.60
2018-11-06T07:05:30.767Z,70.60
2018-11-06T07:07:59.156Z,70.80
2018-11-06T07:10:27.491Z,70.80
2018-11-06T07:12:55.892Z,71.00
2018-11-06T07:15:24.233Z,71.10
2018-11-06T07:17:52.873Z,71.20
2018-11-06T07:20:22.635Z,71.50
2018-11-06T07:22:50.974Z,72.30
2018-11-06T07:25:19.345Z,73.10
2018-11-06T07:27:48.331Z,73.70
2018-11-06T07:30:19.848Z,73.50
2018-11-06T07:32:48.252Z,73.40
2018-11-06T07:35:17.347Z,73.80
2018-11-06T07:37:45.845Z,74.20
2018-11-06T07:40:15.441Z,73.80
2018-11-06T07:42:43.853Z,71.70
2018-11-06T07:45:13.665Z,71.40
2018-11-06T07:47:42.063Z,71.10
2018-11-06T07:50:11.085Z,70.20
2018-11-06T07:52:39.689Z,70.30
2018-11-06T07:55:10.055Z,70.60
2018-11-06T07:57:38.372Z,70.70
2018-11-06T08:00:17.651Z,71.40
2018-11-06T08:02:46.828Z,71.80
2018-11-06T08:05:15.712Z,72.50
2018-11-06T08:07:44.836Z,73.20
2018-11-06T08:10:13.198Z,73.90
2018-11-06T08:12:43.121Z,74.60
2018-11-06T08:15:12.144Z,74.70
2018-11-06T08:17:40.993Z,75.00
2018-11-06T08:20:09.359Z,75.40
2018-11-06T08:22:38.166Z,76.30
2018-11-06T08:25:07.539Z,76.00
2018-11-06T08:27:35.959Z,76.20
2018-11-06T08:30:05.041Z,76.00
2018-11-06T08:32:33.822Z,75.70
2018-11-06T08:35:01.692Z,75.00
2018-11-06T08:37:30.042Z,74.10
2018-11-06T08:39:58.409Z,73.60
2018-11-06T08:42:26.755Z,73.60
2018-11-06T08:44:55.101Z,74.20
2018-11-06T08:47:23.476Z,73.20
2018-11-06T08:49:51.823Z,73.00
2018-11-06T08:52:20.184Z,72.70
2018-11-06T08:54:48.539Z,72.40
2018-11-06T08:57:16.894Z,72.40
2018-11-06T08:59:45.226Z,72.10
2018-11-06T09:02:13.585Z,71.80
2018-11-06T09:04:41.948Z,71.90
2018-11-06T09:07:10.336Z,72.00
2018-11-06T09:09:38.664Z,72.00
2018-11-06T09:12:07.011Z,72.10
2018-11-06T09:14:35.396Z,72.10
2018-11-06T09:17:03.806Z,72.20
2018-11-06T09:19:32.110Z,72.20
2018-11-06T09:22:00.450Z,72.20
2018-11-06T09:24:28.779Z,71.80
2018-11-06T09:26:57.136Z,71.40
2018-11-06T09:29:25.477Z,71.20
2018-11-06T09:31:53.865Z,71.40
2018-11-06T09:34:22.188Z,71.10
2018-11-06T09:36:50.513Z,71.20
2018-11-06T09:39:18.879Z,70.80
2018-11-06T09:41:47.215Z,70.10
2018-11-06T09:44:15.578Z,69.90
2018-11-06T09:46:44.018Z,69.70
2018-11-06T09:49:12.371Z,69.50
2018-11-06T09:51:40.772Z,69.30
2018-11-06T09:54:09.098Z,68.30
2018-11-06T09:56:37.477Z,68.00
2018-11-06T09:59:05.834Z,67.30
2018-11-06T10:01:34.190Z,67.40
2018-11-06T10:04:02.538Z,66.60
2018-11-06T10:06:30.965Z,66.60
2018-11-06T10:08:59.256Z,65.40
2018-11-06T10:11:27.657Z,65.10
2018-11-06T10:13:55.942Z,64.90
2018-11-06T10:16:24.275Z,64.70
2018-11-06T10:18:52.608Z,64.20
2018-11-06T10:21:21.069Z,63.30
2018-11-06T10:23:49.341Z,63.40
2018-11-06T10:26:17.670Z,63.50
2018-11-06T10:28:46.053Z,62.90
2018-11-06T10:31:14.382Z,62.60
2018-11-06T10:33:42.797Z,62.30
2018-11-06T10:36:11.193Z,61.40
2018-11-06T10:38:39.571Z,61.20
2018-11-06T10:41:07.958Z,61.30
2018-11-06T10:43:36.316Z,61.00
2018-11-06T10:46:04.944Z,60.10
2018-11-06T10:48:33.320Z,59.90
2018-11-06T10:51:01.628Z,59.00
2018-11-06T10:53:30.012Z,60.10
2018-11-06T10:55:58.469Z,58.40
2018-11-06T10:58:26.849Z,57.90
2018-11-06T11:01:00.624Z,57.90
2018-11-06T11:03:34.254Z,56.90
2018-11-06T11:06:02.574Z,56.00
2018-11-06T11:08:30.913Z,55.40
2018-11-06T11:10:59.329Z,56.50
2018-11-06T11:13:27.743Z,56.20
2018-11-06T11:15:56.056Z,55.60
2018-11-06T11:18:24.407Z,55.70
2018-11-06T11:20:52.766Z,55.30
2018-11-06T11:23:21.160Z,54.80
2018-11-06T11:25:49.661Z,54.00
2018-11-06T11:28:17.972Z,52.60
2018-11-06T11:30:46.331Z,51.90
2018-11-06T11:33:14.731Z,50.80
2018-11-06T11:35:43.206Z,51.00
2018-11-06T11:38:11.568Z,52.50
2018-11-06T11:40:40.059Z,51.40
2018-11-06T11:43:08.449Z,52.70
2018-11-06T11:45:36.817Z,51.70
2018-11-06T11:48:05.561Z,50.30
2018-11-06T11:50:33.940Z,50.60
2018-11-06T11:53:02.502Z,50.50
2018-11-06T11:55:30.909Z,49.70
2018-11-06T11:57:59.346Z,48.50
2018-11-06T12:00:28.637Z,49.70
2018-11-06T12:02:57.641Z,49.50
2018-11-06T12:05:25.987Z,48.60
2018-11-06T12:07:54.357Z,48.50
2018-11-06T12:10:22.929Z,49.30
2018-11-06T12:12:51.289Z,49.90
2018-11-06T12:15:19.959Z,50.30
2018-11-06T12:17:48.356Z,50.20
2018-11-06T12:20:17.073Z,50.90
2018-11-06T12:22:45.543Z,50.30
2018-11-06T12:25:14.358Z,50.90
2018-11-06T12:27:42.827Z,51.90
2018-11-06T12:30:14.256Z,51.80
2018-11-06T12:32:42.768Z,52.10
2018-11-06T12:35:12.087Z,51.90
2018-11-06T12:37:40.741Z,52.30
2018-11-06T12:40:10.462Z,53.10
2018-11-06T12:42:39.439Z,52.90
2018-11-06T12:45:09.469Z,52.90
2018-11-06T12:47:37.999Z,52.50
2018-11-06T12:50:07.187Z,52.70
2018-11-06T12:52:35.571Z,51.80
2018-11-06T12:55:04.265Z,51.50
2018-11-06T12:57:32.633Z,50.30
2018-11-06T13:00:01.004Z,50.90
2018-11-06T13:02:29.340Z,51.00
2018-11-06T13:04:57.671Z,51.00
2018-11-06T13:07:25.993Z,51.20
2018-11-06T13:09:54.464Z,51.10
2018-11-06T13:12:22.786Z,51.20
2018-11-06T13:14:51.144Z,50.70
2018-11-06T13:17:19.473Z,50.50
2018-11-06T13:19:47.824Z,50.40
2018-11-06T13:22:16.197Z,50.50
2018-11-06T13:24:44.531Z,50.10
2018-11-06T13:27:12.887Z,50.20
2018-11-06T13:29:41.314Z,49.00
2018-11-06T13:32:09.738Z,50.30
2018-11-06T13:34:38.069Z,50.20
2018-11-06T13:37:06.475Z,49.40
2018-11-06T13:39:34.812Z,49.40
2018-11-06T13:42:03.226Z,49.00
2018-11-06T13:44:31.839Z,50.40
2018-11-06T13:46:59.862Z,51.30
2018-11-06T13:49:28.223Z,51.70
2018-11-06T13:51:56.649Z,52.10
2018-11-06T13:54:24.962Z,52.20
2018-11-06T13:56:53.299Z,52.60
2018-11-06T13:59:21.683Z,52.90
2018-11-06T14:01:50.042Z,52.00
2018-11-06T14:04:18.460Z,51.80
2018-11-06T14:06:46.840Z,52.50
2018-11-06T14:09:15.199Z,52.80
2018-11-06T14:11:43.545Z,52.70
2018-11-06T14:14:11.901Z,52.90
2018-11-06T14:16:40.256Z,53.40
2018-11-06T14:19:08.618Z,53.70
2018-11-06T14:21:36.951Z,54.20
2018-11-06T14:24:05.423Z,54.30
2018-11-06T14:26:33.804Z,54.20
2018-11-06T14:29:02.313Z,54.10
2018-11-06T14:31:30.724Z,54.20
2018-11-06T14:33:59.339Z,54.50
2018-11-06T14:36:27.783Z,55.10
2018-11-06T14:38:56.133Z,55.80
2018-11-06T14:41:24.507Z,56.10
2018-11-06T14:43:52.884Z,56.50
2018-11-06T14:46:21.249Z,57.00
2018-11-06T14:48:49.714Z,57.50
2018-11-06T14:51:18.098Z,57.80
2018-11-06T14:53:46.480Z,57.50
2018-11-06T14:56:15.068Z,58.10
2018-11-06T14:58:43.660Z,57.50
2018-11-06T15:01:12.047Z,57.60
2018-11-06T15:03:40.398Z,57.60
2018-11-06T15:06:08.869Z,58.10
2018-11-06T15:08:37.269Z,58.00
2018-11-06T15:11:05.661Z,58.20
2018-11-06T15:13:33.992Z,58.50
2018-11-06T15:16:02.344Z,58.50
2018-11-06T15:18:30.717Z,58.40
2018-11-06T15:20:59.189Z,59.10
2018-11-06T15:23:27.506Z,59.30
2018-11-06T15:25:55.890Z,59.60
2018-11-06T15:28:24.268Z,60.00
2018-11-06T15:30:52.674Z,60.60
2018-11-06T15:33:21.027Z,60.20
2018-11-06T15:35:49.400Z,59.80
2018-11-06T15:38:17.769Z,59.50
2018-11-06T15:40:46.166Z,59.50
2018-11-06T15:43:14.552Z,59.90
2018-11-06T15:45:42.878Z,60.20
2018-11-06T15:48:11.242Z,60.40
2018-11-06T15:50:39.649Z,60.50
2018-11-06T15:53:08.052Z,61.00
2018-11-06T15:55:36.462Z,61.00
2018-11-06T15:58:04.870Z,61.70
2018-11-06T16:00:33.315Z,61.70
2018-11-06T16:03:01.630Z,61.60
2018-11-06T16:05:30.005Z,61.70
2018-11-06T16:07:58.413Z,61.90
2018-11-06T16:10:26.754Z,62.60
2018-11-06T16:12:55.160Z,62.70
2018-11-06T16:15:23.589Z,63.10
2018-11-06T16:17:51.942Z,63.00
2018-11-06T16:20:21.116Z,62.90
2018-11-06T16:22:49.549Z,63.50
2018-11-06T16:25:18.785Z,63.70
2018-11-06T16:27:47.372Z,63.70
2018-11-06T16:30:17.271Z,63.70
2018-11-06T16:32:45.732Z,63.50
2018-11-06T16:35:15.549Z,63.50
2018-11-06T16:37:44.369Z,63.50
2018-11-06T16:40:13.336Z,63.50
2018-11-06T16:42:42.750Z,63.50
2018-11-06T16:45:13.697Z,63.50
2018-11-06T16:47:42.760Z,63.50
2018-11-06T16:50:12.518Z,63.50
2018-11-06T16:52:41.074Z,63.50
2018-11-06T16:55:09.965Z,63.60
2018-11-06T16:57:39.595Z,63.90
2018-11-06T17:00:09.893Z,64.00
2018-11-06T17:02:38.254Z,64.30
2018-11-06T17:05:07.350Z,64.70
2018-11-06T17:07:35.737Z,64.20
2018-11-06T17:10:05.235Z,64.40
2018-11-06T17:12:33.659Z,64.50
2018-11-06T17:15:02.095Z,64.70
2018-11-06T17:17:30.450Z,64.50
2018-11-06T17:19:58.816Z,64.70
2018-11-06T17:22:27.205Z,65.10
2018-11-06T17:24:55.556Z,65.20
2018-11-06T17:27:23.943Z,65.30
2018-11-06T17:29:52.287Z,65.50
2018-11-06T17:32:20.702Z,65.50
2018-11-06T17:34:49.068Z,65.50
2018-11-06T17:37:17.475Z,65.50
2018-11-06T17:39:45.817Z,65.40
2018-11-06T17:42:14.199Z,65.40
2018-11-06T17:44:42.567Z,65.30
2018-11-06T17:47:10.996Z,65.50
2018-11-06T17:49:39.336Z,65.50
2018-11-06T17:52:07.726Z,65.50
2018-11-06T17:54:36.094Z,65.80
2018-11-06T17:57:04.558Z,65.70
2018-11-06T17:59:32.993Z,66.00
2018-11-06T18:02:01.427Z,66.10
2018-11-06T18:04:30.051Z,66.00
2018-11-06T18:06:59.582Z,66.20
2018-11-06T18:09:28.490Z,66.20
2018-11-06T18:11:56.952Z,66.20
2018-11-06T18:14:26.098Z,66.10
2018-11-06T18:16:55.902Z,66.20
2018-11-06T18:19:24.285Z,66.50
2018-11-06T18:21:52.671Z,66.60
2018-11-06T18:24:21.105Z,67.00
2018-11-06T18:26:49.469Z,66.90
2018-11-06T18:29:18.921Z,66.70
2018-11-06T18:31:47.658Z,66.60
2018-11-06T18:34:15.998Z,66.40
2018-11-06T18:36:44.418Z,66.40
2018-11-06T18:39:14.206Z,66.50
2018-11-06T18:41:43.043Z,66.50
2018-11-06T18:44:11.468Z,66.50
2018-11-06T18:46:39.833Z,66.20
2018-11-06T18:49:08.696Z,66.20
2018-11-06T18:51:37.090Z,66.20
2018-11-06T18:54:05.773Z,66.30
2018-11-06T18:56:34.181Z,65.90
2018-11-06T18:59:02.619Z,65.60
2018-11-06T19:01:30.987Z,65.50
2018-11-06T19:03:59.373Z,65.30
2018-11-06T19:06:27.753Z,65.00
2018-11-06T19:08:56.148Z,65.00
2018-11-06T19:11:24.488Z,65.20
2018-11-06T19:13:52.870Z,66.40
2018-11-06T19:16:27.848Z,65.80
2018-11-06T19:18:56.224Z,65.90
2018-11-06T19:21:24.581Z,65.40
2018-11-06T19:23:52.997Z,65.90
2018-11-06T19:26:21.330Z,66.70
2018-11-06T19:28:49.695Z,67.40
2018-11-06T19:31:18.069Z,67.40
2018-11-06T19:33:46.404Z,67.40
2018-11-06T19:36:14.793Z,67.20
2018-11-06T19:38:43.159Z,66.90
2018-11-06T19:41:11.582Z,66.70
2018-11-06T19:43:40.023Z,65.10
2018-11-06T19:46:08.545Z,64.70
2018-11-06T19:48:36.948Z,64.00
2018-11-06T19:51:05.411Z,63.80
2018-11-06T19:53:33.862Z,63.80
2018-11-06T19:56:02.228Z,64.70
2018-11-06T19:58:30.647Z,64.10
2018-11-06T20:00:59.051Z,64.20
2018-11-06T20:03:27.461Z,62.30
2018-11-06T20:05:56.010Z,62.30
2018-11-06T20:08:24.285Z,62.80
2018-11-06T20:10:52.668Z,62.90
2018-11-06T20:13:21.039Z,62.90
2018-11-06T20:15:49.499Z,62.80
2018-11-06T20:18:17.983Z,63.30
2018-11-06T20:20:46.345Z,61.40
2018-11-06T20:23:14.721Z,61.30
2018-11-06T20:25:43.288Z,62.00
2018-11-06T20:28:11.681Z,62.80
2018-11-06T20:30:40.136Z,63.30
2018-11-06T20:33:08.524Z,64.20
2018-11-06T20:35:36.931Z,64.50
2018-11-06T20:38:05.389Z,64.60
2018-11-06T20:40:33.722Z,64.80
2018-11-06T20:43:02.125Z,65.40
2018-11-06T20:45:30.428Z,62.70
2018-11-06T20:47:58.834Z,62.70
2018-11-06T20:50:27.185Z,62.30
2018-11-06T20:52:55.666Z,62.20
2018-11-06T20:55:23.995Z,63.30
2018-11-06T20:57:52.326Z,62.80
2018-11-06T21:00:25.994Z,60.70
2018-11-06T21:02:55.279Z,59.60
2018-11-06T21:05:23.643Z,60.50
2018-11-06T21:07:52.000Z,61.90
2018-11-06T21:10:21.641Z,59.80
2018-11-06T21:12:50.007Z,58.90
2018-11-06T21:15:18.354Z,58.70
2018-11-06T21:17:47.716Z,59.80
2018-11-06T21:20:16.665Z,61.40
2018-11-06T21:22:44.978Z,62.90
2018-11-06T21:25:13.677Z,63.20
2018-11-06T21:27:42.430Z,63.10
2018-11-06T21:30:13.604Z,62.30
2018-11-06T21:32:43.080Z,60.90
2018-11-06T21:35:11.538Z,62.80
2018-11-06T21:37:40.146Z,62.70
2018-11-06T21:40:10.580Z,64.20
2018-11-06T21:42:39.316Z,64.70
2018-11-06T21:45:08.799Z,65.00
2018-11-06T21:47:37.104Z,65.00
2018-11-06T21:50:06.613Z,63.40
2018-11-06T21:52:34.936Z,63.80
2018-11-06T21:55:03.290Z,62.70
2018-11-06T21:57:31.614Z,61.90
2018-11-06T21:59:59.974Z,60.80
2018-11-06T22:02:28.290Z,58.40
2018-11-06T22:04:56.633Z,60.00
2018-11-06T22:07:24.978Z,61.00
2018-11-06T22:09:53.326Z,60.70
2018-11-06T22:12:21.704Z,59.50
2018-11-06T22:14:49.997Z,60.00
2018-11-06T22:17:18.334Z,60.60
2018-11-06T22:19:46.684Z,61.20
2018-11-06T22:22:15.072Z,61.00
2018-11-06T22:24:43.393Z,59.50
2018-11-06T22:27:11.714Z,59.00
2018-11-06T22:29:40.058Z,59.50
2018-11-06T22:32:08.568Z,60.50
2018-11-06T22:34:36.854Z,62.10
2018-11-06T22:37:05.380Z,62.80
2018-11-06T22:39:33.632Z,63.20
2018-11-06T22:42:01.952Z,63.80
2018-11-06T22:44:30.300Z,64.10
2018-11-06T22:46:58.639Z,64.40
2018-11-06T22:49:26.985Z,64.40
2018-11-06T22:51:55.328Z,63.20
2018-11-06T22:54:23.656Z,62.60
2018-11-06T22:56:51.993Z,62.60
2018-11-06T22:59:20.334Z,61.20
2018-11-06T23:01:48.666Z,61.10
2018-11-06T23:04:16.990Z,61.00
2018-11-06T23:06:45.407Z,60.70
2018-11-06T23:09:13.644Z,61.70
2018-11-06T23:11:42.002Z,62.00
2018-11-06T23:14:10.344Z,62.10
2018-11-06T23:16:38.646Z,62.40
2018-11-06T23:19:06.996Z,62.30
2018-11-06T23:21:35.332Z,62.30
2018-11-06T23:24:03.684Z,62.40
2018-11-06T23:26:32.085Z,62.90
2018-11-06T23:29:00.410Z,64.00
2018-11-06T23:31:28.811Z,64.50
2018-11-06T23:33:57.124Z,64.00
2018-11-06T23:36:25.405Z,64.10
2018-11-06T23:38:53.773Z,64.20
2018-11-06T23:41:22.070Z,64.20
2018-11-06T23:43:50.382Z,64.30
2018-11-06T23:46:18.685Z,64.60
2018-11-06T23:48:47.000Z,64.80
2018-11-06T23:51:15.319Z,65.00
2018-11-06T23:53:43.659Z,65.20
2018-11-06T23:56:12.013Z,65.40
2018-11-06T23:58:40.282Z,65.60
